sensor_id;sensor_type;location;lat;lon;timestamp;P1;durP1;ratioP1;P2;durP2;ratioP2
29362;SDS011;16349;53.672;10.014;2023-07-30T00:00:49;6.30;;;5.73;;
29362;SDS011;16349;53.672;10.014;2023-07-30T00:03:16;6.53;;;5.27;;
29362;SDS011;16349;53.672;10.014;2023-07-30T00:05:46;6.27;;;5.67;;
29362;SDS011;16349;53.672;10.014;2023-07-30T00:08:18;6.60;;;6.10;;
29362;SDS011;16349;53.672;10.014;2023-07-30T00:10:45;7.67;;;6.40;;
29362;SDS011;16349;53.672;10.014;2023-07-30T00:13:11;7.70;;;6.33;;
29362;SDS011;16349;53.672;10.014;2023-07-30T00:15:40;6.67;;;5.97;;
29362;SDS011;16349;53.672;10.014;2023-07-30T00:18:06;6.70;;;5.87;;
29362;SDS011;16349;53.672;10.014;2023-07-30T00:20:34;7.53;;;6.27;;
29362;SDS011;16349;53.672;10.014;2023-07-30T00:23:01;9.13;;;6.30;;
29362;SDS011;16349;53.672;10.014;2023-07-30T00:25:28;7.10;;;6.40;;
29362;SDS011;16349;53.672;10.014;2023-07-30T00:27:55;7.17;;;6.43;;
29362;SDS011;16349;53.672;10.014;2023-07-30T00:30:21;8.17;;;6.50;;
29362;SDS011;16349;53.672;10.014;2023-07-30T00:32:50;8.70;;;6.83;;
29362;SDS011;16349;53.672;10.014;2023-07-30T00:35:16;8.70;;;7.40;;
29362;SDS011;16349;53.672;10.014;2023-07-30T00:37:43;7.67;;;6.97;;
29362;SDS011;16349;53.672;10.014;2023-07-30T00:40:11;10.30;;;7.77;;
29362;SDS011;16349;53.672;10.014;2023-07-30T00:42:38;6.33;;;5.67;;
29362;SDS011;16349;53.672;10.014;2023-07-30T00:45:05;6.03;;;5.47;;
29362;SDS011;16349;53.672;10.014;2023-07-30T00:47:33;5.77;;;5.17;;
29362;SDS011;16349;53.672;10.014;2023-07-30T00:50:01;6.23;;;5.70;;
29362;SDS011;16349;53.672;10.014;2023-07-30T00:52:28;6.33;;;5.30;;
29362;SDS011;16349;53.672;10.014;2023-07-30T00:54:56;5.37;;;4.87;;
29362;SDS011;16349;53.672;10.014;2023-07-30T00:57:23;4.63;;;4.23;;
29362;SDS011;16349;53.672;10.014;2023-07-30T00:59:51;5.07;;;4.57;;
29362;SDS011;16349;53.672;10.014;2023-07-30T01:02:19;4.77;;;4.37;;
29362;SDS011;16349;53.672;10.014;2023-07-30T01:04:47;4.77;;;4.37;;
29362;SDS011;16349;53.672;10.014;2023-07-30T01:07:16;5.93;;;4.97;;
29362;SDS011;16349;53.672;10.014;2023-07-30T01:09:42;4.77;;;4.33;;
29362;SDS011;16349;53.672;10.014;2023-07-30T01:12:09;3.37;;;3.07;;
29362;SDS011;16349;53.672;10.014;2023-07-30T01:14:37;5.00;;;3.20;;
29362;SDS011;16349;53.672;10.014;2023-07-30T01:17:05;3.80;;;3.50;;
29362;SDS011;16349;53.672;10.014;2023-07-30T01:19:32;3.70;;;3.40;;
29362;SDS011;16349;53.672;10.014;2023-07-30T01:22:00;3.33;;;2.97;;
29362;SDS011;16349;53.672;10.014;2023-07-30T01:24:28;4.70;;;3.30;;
29362;SDS011;16349;53.672;10.014;2023-07-30T01:26:55;3.63;;;3.30;;
29362;SDS011;16349;53.672;10.014;2023-07-30T01:29:27;3.37;;;3.07;;
29362;SDS011;16349;53.672;10.014;2023-07-30T01:32:00;3.80;;;3.50;;
29362;SDS011;16349;53.672;10.014;2023-07-30T01:34:31;3.60;;;3.30;;
29362;SDS011;16349;53.672;10.014;2023-07-30T01:37:02;3.80;;;3.50;;
29362;SDS011;16349;53.672;10.014;2023-07-30T01:39:30;3.90;;;3.60;;
29362;SDS011;16349;53.672;10.014;2023-07-30T01:41:59;4.90;;;3.10;;
29362;SDS011;16349;53.672;10.014;2023-07-30T01:44:26;7.83;;;3.87;;
29362;SDS011;16349;53.672;10.014;2023-07-30T01:46:53;4.57;;;4.17;;
29362;SDS011;16349;53.672;10.014;2023-07-30T01:49:20;5.20;;;4.13;;
29362;SDS011;16349;53.672;10.014;2023-07-30T01:51:46;4.37;;;3.97;;
29362;SDS011;16349;53.672;10.014;2023-07-30T01:54:15;4.60;;;4.20;;
29362;SDS011;16349;53.672;10.014;2023-07-30T01:56:42;4.40;;;4.10;;
29362;SDS011;16349;53.672;10.014;2023-07-30T01:59:09;4.60;;;4.20;;
29362;SDS011;16349;53.672;10.014;2023-07-30T02:01:36;4.53;;;4.23;;
29362;SDS011;16349;53.672;10.014;2023-07-30T02:04:03;5.13;;;4.70;;
29362;SDS011;16349;53.672;10.014;2023-07-30T02:06:30;5.13;;;4.73;;
29362;SDS011;16349;53.672;10.014;2023-07-30T02:08:57;5.53;;;4.70;;
29362;SDS011;16349;53.672;10.014;2023-07-30T02:11:25;5.73;;;5.23;;
29362;SDS011;16349;53.672;10.014;2023-07-30T02:13:51;5.57;;;5.00;;
29362;SDS011;16349;53.672;10.014;2023-07-30T02:16:18;6.77;;;4.87;;
29362;SDS011;16349;53.672;10.014;2023-07-30T02:18:45;7.80;;;5.83;;
29362;SDS011;16349;53.672;10.014;2023-07-30T02:21:12;6.07;;;5.47;;
29362;SDS011;16349;53.672;10.014;2023-07-30T02:23:39;6.37;;;5.77;;
29362;SDS011;16349;53.672;10.014;2023-07-30T02:26:06;5.80;;;5.30;;
29362;SDS011;16349;53.672;10.014;2023-07-30T02:28:34;7.60;;;5.77;;
29362;SDS011;16349;53.672;10.014;2023-07-30T02:31:01;6.10;;;5.60;;
29362;SDS011;16349;53.672;10.014;2023-07-30T02:33:28;5.83;;;5.37;;
29362;SDS011;16349;53.672;10.014;2023-07-30T02:35:54;8.10;;;5.50;;
29362;SDS011;16349;53.672;10.014;2023-07-30T02:38:21;5.83;;;5.33;;
29362;SDS011;16349;53.672;10.014;2023-07-30T02:40:48;5.93;;;5.43;;
29362;SDS011;16349;53.672;10.014;2023-07-30T02:43:15;6.40;;;5.57;;
29362;SDS011;16349;53.672;10.014;2023-07-30T02:45:43;6.43;;;5.77;;
29362;SDS011;16349;53.672;10.014;2023-07-30T02:48:13;6.27;;;5.67;;
29362;SDS011;16349;53.672;10.014;2023-07-30T02:50:40;6.10;;;5.37;;
29362;SDS011;16349;53.672;10.014;2023-07-30T02:53:07;5.13;;;4.73;;
29362;SDS011;16349;53.672;10.014;2023-07-30T02:55:33;6.17;;;5.17;;
29362;SDS011;16349;53.672;10.014;2023-07-30T02:58:00;6.30;;;5.70;;
29362;SDS011;16349;53.672;10.014;2023-07-30T03:00:27;6.67;;;6.07;;
29362;SDS011;16349;53.672;10.014;2023-07-30T03:02:56;6.33;;;5.73;;
29362;SDS011;16349;53.672;10.014;2023-07-30T03:05:23;6.10;;;5.60;;
29362;SDS011;16349;53.672;10.014;2023-07-30T03:07:50;8.13;;;6.30;;
29362;SDS011;16349;53.672;10.014;2023-07-30T03:10:17;6.63;;;5.93;;
29362;SDS011;16349;53.672;10.014;2023-07-30T03:12:44;6.30;;;5.70;;
29362;SDS011;16349;53.672;10.014;2023-07-30T03:15:10;6.47;;;5.80;;
29362;SDS011;16349;53.672;10.014;2023-07-30T03:17:37;7.03;;;6.43;;
29362;SDS011;16349;53.672;10.014;2023-07-30T03:20:06;8.43;;;6.30;;
29362;SDS011;16349;53.672;10.014;2023-07-30T03:22:34;6.80;;;6.20;;
29362;SDS011;16349;53.672;10.014;2023-07-30T03:25:01;6.60;;;5.80;;
29362;SDS011;16349;53.672;10.014;2023-07-30T03:27:29;7.73;;;7.03;;
29362;SDS011;16349;53.672;10.014;2023-07-30T03:29:55;7.93;;;6.67;;
29362;SDS011;16349;53.672;10.014;2023-07-30T03:32:22;7.63;;;6.83;;
29362;SDS011;16349;53.672;10.014;2023-07-30T03:34:49;9.03;;;6.93;;
29362;SDS011;16349;53.672;10.014;2023-07-30T03:37:17;9.07;;;6.73;;
29362;SDS011;16349;53.672;10.014;2023-07-30T03:39:44;9.10;;;7.30;;
29362;SDS011;16349;53.672;10.014;2023-07-30T03:42:11;8.33;;;7.57;;
29362;SDS011;16349;53.672;10.014;2023-07-30T03:44:38;7.30;;;6.67;;
29362;SDS011;16349;53.672;10.014;2023-07-30T03:47:05;13.50;;;7.67;;
29362;SDS011;16349;53.672;10.014;2023-07-30T03:49:32;7.90;;;7.10;;
29362;SDS011;16349;53.672;10.014;2023-07-30T03:52:00;7.93;;;7.13;;
29362;SDS011;16349;53.672;10.014;2023-07-30T03:54:28;9.00;;;6.97;;
29362;SDS011;16349;53.672;10.014;2023-07-30T03:56:55;7.90;;;7.10;;
29362;SDS011;16349;53.672;10.014;2023-07-30T03:59:22;7.63;;;6.60;;
29362;SDS011;16349;53.672;10.014;2023-07-30T04:01:49;9.13;;;7.50;;
29362;SDS011;16349;53.672;10.014;2023-07-30T04:04:16;7.13;;;6.53;;
29362;SDS011;16349;53.672;10.014;2023-07-30T04:06:43;9.47;;;7.57;;
29362;SDS011;16349;53.672;10.014;2023-07-30T04:09:10;8.50;;;7.53;;
29362;SDS011;16349;53.672;10.014;2023-07-30T04:11:38;8.10;;;7.03;;
29362;SDS011;16349;53.672;10.014;2023-07-30T04:14:05;8.40;;;7.50;;
29362;SDS011;16349;53.672;10.014;2023-07-30T04:16:34;7.20;;;6.53;;
29362;SDS011;16349;53.672;10.014;2023-07-30T04:19:01;8.17;;;6.80;;
29362;SDS011;16349;53.672;10.014;2023-07-30T04:21:27;9.10;;;7.87;;
29362;SDS011;16349;53.672;10.014;2023-07-30T04:23:54;7.63;;;6.93;;
29362;SDS011;16349;53.672;10.014;2023-07-30T04:26:21;7.70;;;6.90;;
29362;SDS011;16349;53.672;10.014;2023-07-30T04:28:49;8.17;;;7.37;;
29362;SDS011;16349;53.672;10.014;2023-07-30T04:31:16;9.57;;;7.67;;
29362;SDS011;16349;53.672;10.014;2023-07-30T04:33:43;8.13;;;7.53;;
29362;SDS011;16349;53.672;10.014;2023-07-30T04:36:10;12.47;;;8.17;;
29362;SDS011;16349;53.672;10.014;2023-07-30T04:38:37;8.37;;;7.43;;
29362;SDS011;16349;53.672;10.014;2023-07-30T04:41:04;10.40;;;7.97;;
29362;SDS011;16349;53.672;10.014;2023-07-30T04:43:37;12.70;;;8.20;;
29362;SDS011;16349;53.672;10.014;2023-07-30T04:46:05;9.93;;;8.90;;
29362;SDS011;16349;53.672;10.014;2023-07-30T04:48:32;13.17;;;8.73;;
29362;SDS011;16349;53.672;10.014;2023-07-30T04:50:59;8.33;;;7.53;;
29362;SDS011;16349;53.672;10.014;2023-07-30T04:53:25;13.43;;;9.03;;
29362;SDS011;16349;53.672;10.014;2023-07-30T04:55:55;9.93;;;8.67;;
29362;SDS011;16349;53.672;10.014;2023-07-30T04:58:23;12.30;;;9.47;;
29362;SDS011;16349;53.672;10.014;2023-07-30T05:00:50;9.97;;;8.67;;
29362;SDS011;16349;53.672;10.014;2023-07-30T05:03:18;9.20;;;8.30;;
29362;SDS011;16349;53.672;10.014;2023-07-30T05:05:45;11.80;;;8.60;;
29362;SDS011;16349;53.672;10.014;2023-07-30T05:08:12;10.57;;;8.47;;
29362;SDS011;16349;53.672;10.014;2023-07-30T05:10:39;11.70;;;8.30;;
29362;SDS011;16349;53.672;10.014;2023-07-30T05:13:05;9.60;;;8.37;;
29362;SDS011;16349;53.672;10.014;2023-07-30T05:15:34;10.10;;;8.27;;
29362;SDS011;16349;53.672;10.014;2023-07-30T05:18:00;11.20;;;7.80;;
29362;SDS011;16349;53.672;10.014;2023-07-30T05:20:29;10.03;;;7.70;;
29362;SDS011;16349;53.672;10.014;2023-07-30T05:22:56;10.97;;;7.50;;
29362;SDS011;16349;53.672;10.014;2023-07-30T05:25:22;12.33;;;8.10;;
29362;SDS011;16349;53.672;10.014;2023-07-30T05:27:49;12.40;;;7.10;;
29362;SDS011;16349;53.672;10.014;2023-07-30T05:30:16;11.33;;;7.23;;
29362;SDS011;16349;53.672;10.014;2023-07-30T05:32:43;10.27;;;7.20;;
29362;SDS011;16349;53.672;10.014;2023-07-30T05:35:10;12.07;;;6.90;;
29362;SDS011;16349;53.672;10.014;2023-07-30T05:37:38;8.90;;;7.03;;
29362;SDS011;16349;53.672;10.014;2023-07-30T05:40:05;8.70;;;6.70;;
29362;SDS011;16349;53.672;10.014;2023-07-30T05:42:33;8.33;;;7.43;;
29362;SDS011;16349;53.672;10.014;2023-07-30T05:45:00;11.73;;;7.23;;
29362;SDS011;16349;53.672;10.014;2023-07-30T05:47:29;10.03;;;5.87;;
29362;SDS011;16349;53.672;10.014;2023-07-30T05:49:56;11.40;;;6.33;;
29362;SDS011;16349;53.672;10.014;2023-07-30T05:52:23;11.23;;;6.13;;
29362;SDS011;16349;53.672;10.014;2023-07-30T05:54:51;9.27;;;6.67;;
29362;SDS011;16349;53.672;10.014;2023-07-30T05:57:18;9.67;;;6.73;;
29362;SDS011;16349;53.672;10.014;2023-07-30T05:59:45;14.17;;;6.40;;
29362;SDS011;16349;53.672;10.014;2023-07-30T06:02:12;11.03;;;6.63;;
29362;SDS011;16349;53.672;10.014;2023-07-30T06:04:39;8.10;;;6.30;;
29362;SDS011;16349;53.672;10.014;2023-07-30T06:07:05;8.97;;;6.00;;
29362;SDS011;16349;53.672;10.014;2023-07-30T06:09:33;8.40;;;6.67;;
29362;SDS011;16349;53.672;10.014;2023-07-30T06:12:02;13.17;;;6.20;;
29362;SDS011;16349;53.672;10.014;2023-07-30T06:14:29;10.90;;;6.40;;
29362;SDS011;16349;53.672;10.014;2023-07-30T06:16:56;12.00;;;6.53;;
29362;SDS011;16349;53.672;10.014;2023-07-30T06:19:23;8.17;;;5.77;;
29362;SDS011;16349;53.672;10.014;2023-07-30T06:21:50;7.77;;;6.40;;
29362;SDS011;16349;53.672;10.014;2023-07-30T06:24:17;10.50;;;6.60;;
29362;SDS011;16349;53.672;10.014;2023-07-30T06:26:44;11.33;;;6.33;;
29362;SDS011;16349;53.672;10.014;2023-07-30T06:29:12;14.23;;;6.20;;
29362;SDS011;16349;53.672;10.014;2023-07-30T06:31:39;13.57;;;6.50;;
29362;SDS011;16349;53.672;10.014;2023-07-30T06:34:06;11.57;;;7.47;;
29362;SDS011;16349;53.672;10.014;2023-07-30T06:36:33;12.73;;;6.80;;
29362;SDS011;16349;53.672;10.014;2023-07-30T06:39:00;12.80;;;6.63;;
29362;SDS011;16349;53.672;10.014;2023-07-30T06:41:27;13.27;;;7.40;;
29362;SDS011;16349;53.672;10.014;2023-07-30T06:43:54;11.40;;;6.83;;
29362;SDS011;16349;53.672;10.014;2023-07-30T06:46:22;16.30;;;7.00;;
29362;SDS011;16349;53.672;10.014;2023-07-30T06:48:48;10.73;;;7.03;;
29362;SDS011;16349;53.672;10.014;2023-07-30T06:51:17;16.23;;;7.50;;
29362;SDS011;16349;53.672;10.014;2023-07-30T06:53:45;11.00;;;6.87;;
29362;SDS011;16349;53.672;10.014;2023-07-30T06:56:12;15.80;;;7.87;;
29362;SDS011;16349;53.672;10.014;2023-07-30T06:58:39;17.50;;;8.10;;
29362;SDS011;16349;53.672;10.014;2023-07-30T07:01:06;16.00;;;7.83;;
29362;SDS011;16349;53.672;10.014;2023-07-30T07:03:34;14.83;;;9.00;;
29362;SDS011;16349;53.672;10.014;2023-07-30T07:06:01;16.73;;;10.20;;
29362;SDS011;16349;53.672;10.014;2023-07-30T07:08:28;20.80;;;10.13;;
29362;SDS011;16349;53.672;10.014;2023-07-30T07:10:54;16.00;;;9.83;;
29362;SDS011;16349;53.672;10.014;2023-07-30T07:13:21;19.50;;;9.73;;
29362;SDS011;16349;53.672;10.014;2023-07-30T07:15:48;17.33;;;10.10;;
29362;SDS011;16349;53.672;10.014;2023-07-30T07:18:15;19.93;;;10.73;;
29362;SDS011;16349;53.672;10.014;2023-07-30T07:20:43;22.03;;;10.30;;
29362;SDS011;16349;53.672;10.014;2023-07-30T07:23:10;18.70;;;10.47;;
29362;SDS011;16349;53.672;10.014;2023-07-30T07:25:37;17.73;;;9.80;;
29362;SDS011;16349;53.672;10.014;2023-07-30T07:28:04;16.17;;;9.73;;
29362;SDS011;16349;53.672;10.014;2023-07-30T07:30:31;14.10;;;9.13;;
29362;SDS011;16349;53.672;10.014;2023-07-30T07:33:00;16.57;;;10.03;;
29362;SDS011;16349;53.672;10.014;2023-07-30T07:35:27;17.97;;;9.50;;
29362;SDS011;16349;53.672;10.014;2023-07-30T07:37:55;17.17;;;10.67;;
29362;SDS011;16349;53.672;10.014;2023-07-30T07:40:23;27.00;;;11.07;;
29362;SDS011;16349;53.672;10.014;2023-07-30T07:42:49;15.80;;;10.07;;
29362;SDS011;16349;53.672;10.014;2023-07-30T07:45:16;17.27;;;9.47;;
29362;SDS011;16349;53.672;10.014;2023-07-30T07:47:43;14.80;;;9.33;;
29362;SDS011;16349;53.672;10.014;2023-07-30T07:50:10;14.73;;;9.53;;
29362;SDS011;16349;53.672;10.014;2023-07-30T07:52:36;12.63;;;8.97;;
29362;SDS011;16349;53.672;10.014;2023-07-30T07:55:05;19.23;;;10.07;;
29362;SDS011;16349;53.672;10.014;2023-07-30T07:57:32;17.20;;;8.43;;
29362;SDS011;16349;53.672;10.014;2023-07-30T07:59:59;12.47;;;8.43;;
29362;SDS011;16349;53.672;10.014;2023-07-30T08:02:26;20.23;;;8.80;;
29362;SDS011;16349;53.672;10.014;2023-07-30T08:04:53;14.37;;;8.87;;
29362;SDS011;16349;53.672;10.014;2023-07-30T08:07:20;15.80;;;9.80;;
29362;SDS011;16349;53.672;10.014;2023-07-30T08:09:47;20.10;;;9.20;;
29362;SDS011;16349;53.672;10.014;2023-07-30T08:12:15;16.80;;;8.27;;
29362;SDS011;16349;53.672;10.014;2023-07-30T08:14:42;15.37;;;7.87;;
29362;SDS011;16349;53.672;10.014;2023-07-30T08:17:09;12.27;;;7.53;;
29362;SDS011;16349;53.672;10.014;2023-07-30T08:19:35;19.00;;;7.77;;
29362;SDS011;16349;53.672;10.014;2023-07-30T08:22:02;19.63;;;7.40;;
29362;SDS011;16349;53.672;10.014;2023-07-30T08:24:29;16.30;;;7.60;;
29362;SDS011;16349;53.672;10.014;2023-07-30T08:26:56;15.73;;;7.20;;
29362;SDS011;16349;53.672;10.014;2023-07-30T08:29:25;18.07;;;6.17;;
29362;SDS011;16349;53.672;10.014;2023-07-30T08:31:52;13.60;;;6.10;;
29362;SDS011;16349;53.672;10.014;2023-07-30T08:34:21;13.80;;;6.60;;
29362;SDS011;16349;53.672;10.014;2023-07-30T08:36:47;14.00;;;6.60;;
29362;SDS011;16349;53.672;10.014;2023-07-30T08:39:14;15.23;;;6.40;;
29362;SDS011;16349;53.672;10.014;2023-07-30T08:41:41;12.67;;;5.87;;
29362;SDS011;16349;53.672;10.014;2023-07-30T08:44:08;11.27;;;5.97;;
29362;SDS011;16349;53.672;10.014;2023-07-30T08:46:37;9.70;;;5.97;;
29362;SDS011;16349;53.672;10.014;2023-07-30T08:49:04;15.63;;;6.57;;
29362;SDS011;16349;53.672;10.014;2023-07-30T08:51:31;10.33;;;6.80;;
29362;SDS011;16349;53.672;10.014;2023-07-30T08:54:01;11.23;;;6.20;;
29362;SDS011;16349;53.672;10.014;2023-07-30T08:56:29;10.33;;;6.53;;
29362;SDS011;16349;53.672;10.014;2023-07-30T08:58:57;10.00;;;6.30;;
29362;SDS011;16349;53.672;10.014;2023-07-30T09:01:26;12.57;;;6.27;;
29362;SDS011;16349;53.672;10.014;2023-07-30T09:03:58;10.67;;;5.97;;
29362;SDS011;16349;53.672;10.014;2023-07-30T09:06:26;15.50;;;5.40;;
29362;SDS011;16349;53.672;10.014;2023-07-30T09:08:53;10.03;;;4.43;;
29362;SDS011;16349;53.672;10.014;2023-07-30T09:11:20;11.90;;;5.03;;
29362;SDS011;16349;53.672;10.014;2023-07-30T09:13:51;8.07;;;4.07;;
29362;SDS011;16349;53.672;10.014;2023-07-30T09:16:19;10.67;;;4.77;;
29362;SDS011;16349;53.672;10.014;2023-07-30T09:18:51;8.10;;;3.50;;
29362;SDS011;16349;53.672;10.014;2023-07-30T09:21:20;12.43;;;3.95;;
29362;SDS011;16349;53.672;10.014;2023-07-30T09:23:56;5.60;;;3.47;;
29362;SDS011;16349;53.672;10.014;2023-07-30T09:26:23;8.63;;;3.50;;
29362;SDS011;16349;53.672;10.014;2023-07-30T09:28:50;7.80;;;3.55;;
29362;SDS011;16349;53.672;10.014;2023-07-30T09:31:16;11.13;;;4.00;;
29362;SDS011;16349;53.672;10.014;2023-07-30T09:33:43;7.97;;;3.35;;
29362;SDS011;16349;53.672;10.014;2023-07-30T09:36:10;8.15;;;3.30;;
29362;SDS011;16349;53.672;10.014;2023-07-30T09:38:39;14.75;;;3.67;;
29362;SDS011;16349;53.672;10.014;2023-07-30T09:41:08;6.90;;;3.38;;
29362;SDS011;16349;53.672;10.014;2023-07-30T09:43:37;9.52;;;3.20;;
29362;SDS011;16349;53.672;10.014;2023-07-30T09:46:05;7.88;;;2.95;;
29362;SDS011;16349;53.672;10.014;2023-07-30T09:48:33;8.90;;;2.92;;
29362;SDS011;16349;53.672;10.014;2023-07-30T09:51:00;6.13;;;2.63;;
29362;SDS011;16349;53.672;10.014;2023-07-30T09:53:29;7.65;;;2.78;;
29362;SDS011;16349;53.672;10.014;2023-07-30T09:56:00;7.70;;;2.95;;
29362;SDS011;16349;53.672;10.014;2023-07-30T09:58:28;8.10;;;2.75;;
29362;SDS011;16349;53.672;10.014;2023-07-30T10:00:55;7.18;;;3.45;;
29362;SDS011;16349;53.672;10.014;2023-07-30T10:03:23;12.20;;;3.83;;
29362;SDS011;16349;53.672;10.014;2023-07-30T10:05:50;10.10;;;3.80;;
29362;SDS011;16349;53.672;10.014;2023-07-30T10:08:24;8.82;;;3.28;;
29362;SDS011;16349;53.672;10.014;2023-07-30T10:10:53;11.98;;;4.38;;
29362;SDS011;16349;53.672;10.014;2023-07-30T10:13:23;7.90;;;3.30;;
29362;SDS011;16349;53.672;10.014;2023-07-30T10:15:50;11.77;;;4.03;;
29362;SDS011;16349;53.672;10.014;2023-07-30T10:18:17;13.45;;;4.13;;
29362;SDS011;16349;53.672;10.014;2023-07-30T10:20:48;5.32;;;3.80;;
29362;SDS011;16349;53.672;10.014;2023-07-30T10:23:19;10.35;;;4.47;;
29362;SDS011;16349;53.672;10.014;2023-07-30T10:25:46;8.57;;;3.83;;
29362;SDS011;16349;53.672;10.014;2023-07-30T10:28:28;5.75;;;3.85;;
29362;SDS011;16349;53.672;10.014;2023-07-30T10:30:59;7.95;;;4.00;;
29362;SDS011;16349;53.672;10.014;2023-07-30T10:33:43;10.52;;;4.25;;
29362;SDS011;16349;53.672;10.014;2023-07-30T10:36:11;9.50;;;4.80;;
29362;SDS011;16349;53.672;10.014;2023-07-30T10:38:38;6.45;;;3.85;;
29362;SDS011;16349;53.672;10.014;2023-07-30T10:41:08;6.13;;;4.10;;
29362;SDS011;16349;53.672;10.014;2023-07-30T10:43:38;10.98;;;3.47;;
29362;SDS011;16349;53.672;10.014;2023-07-30T10:46:06;5.10;;;3.53;;
29362;SDS011;16349;53.672;10.014;2023-07-30T10:48:34;9.32;;;4.50;;
29362;SDS011;16349;53.672;10.014;2023-07-30T10:51:02;7.50;;;3.80;;
29362;SDS011;16349;53.672;10.014;2023-07-30T10:53:31;5.65;;;4.30;;
29362;SDS011;16349;53.672;10.014;2023-07-30T10:55:58;5.32;;;4.00;;
29362;SDS011;16349;53.672;10.014;2023-07-30T10:58:28;8.07;;;3.78;;
29362;SDS011;16349;53.672;10.014;2023-07-30T11:00:57;8.23;;;3.63;;
29362;SDS011;16349;53.672;10.014;2023-07-30T11:03:24;10.30;;;3.60;;
29362;SDS011;16349;53.672;10.014;2023-07-30T11:05:52;5.53;;;2.83;;
29362;SDS011;16349;53.672;10.014;2023-07-30T11:08:21;10.45;;;3.78;;
29362;SDS011;16349;53.672;10.014;2023-07-30T11:10:58;6.53;;;2.72;;
29362;SDS011;16349;53.672;10.014;2023-07-30T11:13:25;6.93;;;2.88;;
29362;SDS011;16349;53.672;10.014;2023-07-30T11:15:52;6.10;;;2.75;;
29362;SDS011;16349;53.672;10.014;2023-07-30T11:18:21;7.20;;;2.40;;
29362;SDS011;16349;53.672;10.014;2023-07-30T11:20:47;5.57;;;2.22;;
29362;SDS011;16349;53.672;10.014;2023-07-30T11:23:18;5.60;;;2.30;;
29362;SDS011;16349;53.672;10.014;2023-07-30T11:25:47;2.78;;;1.73;;
29362;SDS011;16349;53.672;10.014;2023-07-30T11:28:15;8.27;;;2.10;;
29362;SDS011;16349;53.672;10.014;2023-07-30T11:30:55;5.28;;;1.85;;
29362;SDS011;16349;53.672;10.014;2023-07-30T11:33:25;5.78;;;1.95;;
29362;SDS011;16349;53.672;10.014;2023-07-30T11:35:52;2.72;;;2.00;;
29362;SDS011;16349;53.672;10.014;2023-07-30T11:38:20;4.55;;;1.75;;
29362;SDS011;16349;53.672;10.014;2023-07-30T11:40:47;4.57;;;1.90;;
29362;SDS011;16349;53.672;10.014;2023-07-30T11:43:14;6.50;;;1.83;;
29362;SDS011;16349;53.672;10.014;2023-07-30T11:45:41;5.57;;;1.77;;
29362;SDS011;16349;53.672;10.014;2023-07-30T11:48:09;7.18;;;1.70;;
29362;SDS011;16349;53.672;10.014;2023-07-30T11:50:47;4.40;;;1.90;;
29362;SDS011;16349;53.672;10.014;2023-07-30T11:53:15;4.30;;;1.80;;
29362;SDS011;16349;53.672;10.014;2023-07-30T11:55:43;2.30;;;1.58;;
29362;SDS011;16349;53.672;10.014;2023-07-30T11:58:11;3.63;;;1.85;;
29362;SDS011;16349;53.672;10.014;2023-07-30T12:00:39;4.60;;;1.80;;
29362;SDS011;16349;53.672;10.014;2023-07-30T12:03:09;6.90;;;1.70;;
29362;SDS011;16349;53.672;10.014;2023-07-30T12:05:38;3.40;;;1.58;;
29362;SDS011;16349;53.672;10.014;2023-07-30T12:08:13;3.25;;;1.70;;
29362;SDS011;16349;53.672;10.014;2023-07-30T12:10:44;3.08;;;2.17;;
29362;SDS011;16349;53.672;10.014;2023-07-30T12:13:17;4.07;;;1.77;;
29362;SDS011;16349;53.672;10.014;2023-07-30T12:15:50;2.28;;;1.67;;
29362;SDS011;16349;53.672;10.014;2023-07-30T12:18:18;3.85;;;1.60;;
29362;SDS011;16349;53.672;10.014;2023-07-30T12:20:45;4.10;;;1.77;;
29362;SDS011;16349;53.672;10.014;2023-07-30T12:23:13;4.35;;;1.67;;
29362;SDS011;16349;53.672;10.014;2023-07-30T12:25:40;5.40;;;1.45;;
29362;SDS011;16349;53.672;10.014;2023-07-30T12:28:07;3.05;;;1.55;;
29362;SDS011;16349;53.672;10.014;2023-07-30T12:30:34;5.03;;;1.58;;
29362;SDS011;16349;53.672;10.014;2023-07-30T12:33:01;5.68;;;1.92;;
29362;SDS011;16349;53.672;10.014;2023-07-30T12:35:29;7.53;;;2.00;;
29362;SDS011;16349;53.672;10.014;2023-07-30T12:37:56;5.75;;;2.03;;
29362;SDS011;16349;53.672;10.014;2023-07-30T12:40:24;4.30;;;2.10;;
29362;SDS011;16349;53.672;10.014;2023-07-30T12:42:51;3.40;;;1.52;;
29362;SDS011;16349;53.672;10.014;2023-07-30T12:45:18;7.70;;;1.95;;
29362;SDS011;16349;53.672;10.014;2023-07-30T12:47:45;7.72;;;2.10;;
29362;SDS011;16349;53.672;10.014;2023-07-30T12:50:12;4.05;;;2.17;;
29362;SDS011;16349;53.672;10.014;2023-07-30T12:52:39;5.40;;;1.92;;
29362;SDS011;16349;53.672;10.014;2023-07-30T12:55:06;4.93;;;1.92;;
29362;SDS011;16349;53.672;10.014;2023-07-30T12:57:35;4.43;;;2.42;;
29362;SDS011;16349;53.672;10.014;2023-07-30T13:00:02;4.22;;;2.13;;
29362;SDS011;16349;53.672;10.014;2023-07-30T13:02:29;5.35;;;2.30;;
29362;SDS011;16349;53.672;10.014;2023-07-30T13:04:58;5.80;;;1.67;;
29362;SDS011;16349;53.672;10.014;2023-07-30T13:07:25;6.35;;;2.00;;
29362;SDS011;16349;53.672;10.014;2023-07-30T13:10:01;5.35;;;2.00;;
29362;SDS011;16349;53.672;10.014;2023-07-30T13:12:33;5.45;;;1.80;;
29362;SDS011;16349;53.672;10.014;2023-07-30T13:15:01;3.08;;;2.03;;
29362;SDS011;16349;53.672;10.014;2023-07-30T13:17:29;4.68;;;2.15;;
29362;SDS011;16349;53.672;10.014;2023-07-30T13:19:56;11.10;;;3.13;;
29362;SDS011;16349;53.672;10.014;2023-07-30T13:22:23;9.80;;;2.95;;
29362;SDS011;16349;53.672;10.014;2023-07-30T13:24:50;2.63;;;1.65;;
29362;SDS011;16349;53.672;10.014;2023-07-30T13:27:17;4.70;;;1.83;;
29362;SDS011;16349;53.672;10.014;2023-07-30T13:29:46;4.10;;;1.42;;
29362;SDS011;16349;53.672;10.014;2023-07-30T13:32:14;4.50;;;1.90;;
29362;SDS011;16349;53.672;10.014;2023-07-30T13:34:40;5.63;;;1.87;;
29362;SDS011;16349;53.672;10.014;2023-07-30T13:37:08;3.47;;;1.60;;
29362;SDS011;16349;53.672;10.014;2023-07-30T13:39:34;4.60;;;1.63;;
29362;SDS011;16349;53.672;10.014;2023-07-30T13:42:01;2.13;;;1.30;;
29362;SDS011;16349;53.672;10.014;2023-07-30T13:44:29;3.57;;;1.40;;
29362;SDS011;16349;53.672;10.014;2023-07-30T13:46:57;4.43;;;1.63;;
29362;SDS011;16349;53.672;10.014;2023-07-30T13:49:24;2.43;;;1.40;;
29362;SDS011;16349;53.672;10.014;2023-07-30T13:51:50;2.33;;;1.33;;
29362;SDS011;16349;53.672;10.014;2023-07-30T13:54:17;2.33;;;1.43;;
29362;SDS011;16349;53.672;10.014;2023-07-30T13:56:44;2.57;;;1.50;;
29362;SDS011;16349;53.672;10.014;2023-07-30T13:59:11;4.10;;;1.53;;
29362;SDS011;16349;53.672;10.014;2023-07-30T14:01:38;2.27;;;1.50;;
29362;SDS011;16349;53.672;10.014;2023-07-30T14:04:06;2.67;;;1.10;;
29362;SDS011;16349;53.672;10.014;2023-07-30T14:06:33;3.20;;;1.40;;
29362;SDS011;16349;53.672;10.014;2023-07-30T14:09:00;3.27;;;1.60;;
29362;SDS011;16349;53.672;10.014;2023-07-30T14:11:27;4.10;;;1.77;;
29362;SDS011;16349;53.672;10.014;2023-07-30T14:13:53;1.27;;;1.13;;
29362;SDS011;16349;53.672;10.014;2023-07-30T14:16:21;1.73;;;1.20;;
29362;SDS011;16349;53.672;10.014;2023-07-30T14:18:48;1.63;;;1.30;;
29362;SDS011;16349;53.672;10.014;2023-07-30T14:21:16;3.13;;;1.63;;
29362;SDS011;16349;53.672;10.014;2023-07-30T14:23:43;2.07;;;1.30;;
29362;SDS011;16349;53.672;10.014;2023-07-30T14:26:10;2.93;;;1.50;;
29362;SDS011;16349;53.672;10.014;2023-07-30T14:28:36;2.07;;;1.27;;
29362;SDS011;16349;53.672;10.014;2023-07-30T14:31:03;4.60;;;1.50;;
29362;SDS011;16349;53.672;10.014;2023-07-30T14:33:30;2.57;;;1.17;;